Terminal Aerodrome Forecast
Issued by NWS

Home | Current Version | Previous Version | Text Only | Print | Product List | Glossary On
Versions: 1 2 3 4 5 6 7 8 9 10 11 12 13 14 15 16 17 18 19 20 21
588
FTUS46 KSEW 252103 AAA
TAFBFI
TAF AMD
KBFI 252103Z 2521/2618 23005KT P6SM VCSH SCT025 OVC070
      TEMPO 2521/2524 -RA
     FM260200 VRB02KT P6SM SCT030 BKN050 OVC100
     FM261200 00000KT P6SM BKN015 OVC040=

USA.gov is the U.S. government's official web portal to all federal, state and local government web resources and services.